Time;durP1;ratioP1;P1;durP2;ratioP2;P2;SDS_P1;SDS_P2;PMS_P1;PMS_P2;Temp;Humidity;BMP_temperature;BMP_pressure;BME280_temperature;BME280_humidity;BME280_pressure;Samples;Min_cycle;Max_cycle;Signal;HPM_P1;HPM_P2
2021/08/14 00:00:19;;;;;;;15.68;6.07;;;18.30;97.40;;;;;;6246466;23;20083;-78
2021/08/14 00:02:46;;;;;;;11.02;5.07;;;18.30;97.40;;;;;;6250858;23;20020;-78
2021/08/14 00:05:13;;;;;;;8.25;4.38;;;18.30;97.40;;;;;;6250816;23;20020;-78
2021/08/14 00:07:47;;;;;;;9.05;4.57;;;18.30;97.30;;;;;;6278400;22;20413;-78
2021/08/14 00:10:14;;;;;;;12.70;5.05;;;18.30;97.30;;;;;;6253235;22;20350;-77
2021/08/14 00:12:43;;;;;;;9.43;4.45;;;18.30;97.30;;;;;;6252012;22;20024;-78
2021/08/14 00:15:17;;;;;;;7.65;4.28;;;18.30;97.30;;;;;;6252029;23;20043;-78
2021/08/14 00:17:44;;;;;;;8.70;4.43;;;18.20;97.30;;;;;;6252578;23;20043;-78
2021/08/14 00:20:12;;;;;;;8.48;4.32;;;18.20;97.30;;;;;;6252950;22;20035;-78
2021/08/14 00:22:39;;;;;;;9.98;5.05;;;18.20;97.20;;;;;;6252757;23;20063;-78
2021/08/14 00:25:08;;;;;;;10.02;4.25;;;18.20;97.20;;;;;;6252597;22;20047;-78
2021/08/14 00:27:36;;;;;;;8.63;4.40;;;18.30;97.20;;;;;;6250063;23;20024;-78
2021/08/14 00:30:05;;;;;;;11.50;4.60;;;18.20;97.20;;;;;;6255294;22;20043;-78
2021/08/14 00:32:34;;;;;;;8.65;4.90;;;18.10;97.20;;;;;;6254830;23;20051;-78
2021/08/14 00:35:01;;;;;;;8.82;4.88;;;18.20;97.20;;;;;;6253107;23;20188;-78
2021/08/14 00:37:28;;;;;;;8.13;4.53;;;18.20;97.20;;;;;;6255003;23;20018;-78
2021/08/14 00:39:55;;;;;;;10.15;5.22;;;18.30;97.20;;;;;;6252474;22;20016;-78
2021/08/14 00:42:23;;;;;;;12.93;6.00;;;18.20;97.20;;;;;;6251473;22;20012;-78
2021/08/14 00:44:50;;;;;;;11.82;5.55;;;18.30;97.20;;;;;;6252666;23;20668;-77
2021/08/14 00:47:24;;;;;;;13.20;6.68;;;18.30;97.30;;;;;;6256535;23;20363;-78
2021/08/14 00:49:52;;;;;;;11.73;5.68;;;18.20;97.20;;;;;;6254324;23;20016;-78
2021/08/14 00:52:19;;;;;;;10.35;5.45;;;18.20;97.20;;;;;;6254989;22;20009;-78
2021/08/14 00:54:47;;;;;;;9.63;5.75;;;18.20;97.20;;;;;;6254920;22;20365;-78
2021/08/14 00:57:15;;;;;;;10.43;5.32;;;18.20;97.10;;;;;;6255839;22;20377;-78
2021/08/14 00:59:45;;;;;;;9.98;4.70;;;18.30;97.10;;;;;;6253652;22;20067;-78
2021/08/14 01:02:12;;;;;;;10.48;4.82;;;18.20;97.10;;;;;;6249721;22;20024;-78
2021/08/14 01:04:40;;;;;;;8.93;4.60;;;17.90;97.00;;;;;;6255921;23;20020;-78
2021/08/14 01:07:08;;;;;;;10.57;5.85;;;18.00;97.00;;;;;;6252182;23;20341;-78
2021/08/14 01:09:35;;;;;;;10.90;5.22;;;17.90;97.00;;;;;;6253503;22;20012;-78
2021/08/14 01:12:02;;;;;;;7.70;4.60;;;17.90;97.00;;;;;;6253031;23;20012;-78
2021/08/14 01:14:30;;;;;;;10.52;5.18;;;17.80;96.90;;;;;;6251964;23;20048;-78
2021/08/14 01:17:08;;;;;;;11.20;4.90;;;17.80;96.90;;;;;;4896762;22;10001924;-78
2021/08/14 01:19:35;;;;;;;9.52;4.35;;;17.80;96.90;;;;;;2156002;22;10001976;-78
2021/08/14 01:22:09;;;;;;;9.07;4.38;;;17.70;96.90;;;;;;6253823;23;20087;-79
2021/08/14 01:24:37;;;;;;;9.68;4.65;;;17.80;97.00;;;;;;6253583;23;20027;-78
2021/08/14 01:27:06;;;;;;;12.20;4.55;;;17.90;97.00;;;;;;6254270;23;20024;-78
2021/08/14 01:29:34;;;;;;;8.07;4.53;;;17.90;97.10;;;;;;6252397;23;20067;-79
2021/08/14 01:32:01;;;;;;;7.93;4.20;;;18.00;97.10;;;;;;6253381;23;20224;-78
2021/08/14 01:34:29;;;;;;;8.45;4.70;;;18.00;97.20;;;;;;6254005;23;20016;-78
2021/08/14 01:36:57;;;;;;;10.77;4.82;;;18.10;97.20;;;;;;6253202;22;20062;-78
2021/08/14 01:39:24;;;;;;;9.55;4.45;;;18.00;97.20;;;;;;6249895;23;20122;-78
2021/08/14 01:41:55;;;;;;;10.48;4.53;;;17.90;97.20;;;;;;6250838;22;20016;-78
2021/08/14 01:44:24;;;;;;;9.57;4.57;;;17.90;97.20;;;;;;6248997;22;20288;-78
2021/08/14 01:46:52;;;;;;;8.63;4.43;;;17.80;97.10;;;;;;6250686;23;20087;-78
2021/08/14 01:49:19;;;;;;;11.27;4.68;;;17.90;97.20;;;;;;6248946;23;20031;-78
2021/08/14 01:51:47;;;;;;;11.15;4.78;;;17.90;97.20;;;;;;6248813;23;20028;-78
2021/08/14 01:54:14;;;;;;;8.85;4.72;;;18.00;97.20;;;;;;6276608;22;20012;-79
2021/08/14 01:56:42;;;;;;;9.43;4.82;;;17.90;97.20;;;;;;6250602;23;20046;-78
2021/08/14 01:59:09;;;;;;;10.05;4.95;;;17.90;97.30;;;;;;6250032;22;20027;-78
2021/08/14 02:01:38;;;;;;;10.75;5.70;;;17.80;97.20;;;;;;6240500;23;20111;-78
2021/08/14 02:04:05;;;;;;;10.77;5.53;;;17.90;97.20;;;;;;6249982;22;20015;-78
2021/08/14 02:06:33;;;;;;;13.65;5.60;;;17.90;97.30;;;;;;6247247;23;20078;-78
2021/08/14 02:09:00;;;;;;;13.75;5.68;;;17.80;97.30;;;;;;6249793;23;20396;-79
2021/08/14 02:11:30;;;;;;;13.00;5.55;;;17.80;97.30;;;;;;6249784;23;20032;-79
2021/08/14 02:13:57;;;;;;;11.25;6.05;;;17.70;97.20;;;;;;6252102;23;20349;-79
2021/08/14 02:16:25;;;;;;;11.02;5.97;;;17.70;97.20;;;;;;6251620;22;20036;-79
2021/08/14 02:18:54;;;;;;;10.93;5.47;;;17.60;97.20;;;;;;6253067;22;20181;-79
2021/08/14 02:21:21;;;;;;;12.70;5.85;;;17.70;97.20;;;;;;6250668;23;20020;-78
2021/08/14 02:23:48;;;;;;;12.63;5.50;;;17.60;97.20;;;;;;6251940;23;20075;-79
2021/08/14 02:26:16;;;;;;;10.52;5.22;;;17.60;97.20;;;;;;6254466;22;20061;-78
2021/08/14 02:28:43;;;;;;;10.77;5.07;;;17.60;97.20;;;;;;6253498;23;20031;-78
2021/08/14 02:31:10;;;;;;;14.27;5.18;;;17.50;97.20;;;;;;6253276;22;20016;-79
2021/08/14 02:33:38;;;;;;;10.70;5.38;;;17.60;97.20;;;;;;6247313;23;20220;-79
2021/08/14 02:36:07;;;;;;;9.75;4.72;;;17.50;97.10;;;;;;6252818;22;20044;-79
2021/08/14 02:38:35;;;;;;;12.43;5.28;;;17.30;97.10;;;;;;6251463;23;20023;-79
2021/08/14 02:41:04;;;;;;;11.20;4.95;;;17.20;97.00;;;;;;6252219;23;20030;-79
2021/08/14 02:43:38;;;;;;;9.80;5.50;;;17.20;97.00;;;;;;6250858;22;20024;-79
2021/08/14 02:46:06;;;;;;;11.02;5.32;;;17.20;97.00;;;;;;6249707;23;20091;-78
2021/08/14 02:48:34;;;;;;;11.32;4.65;;;17.30;97.00;;;;;;6254356;23;20373;-79
2021/08/14 02:51:01;;;;;;;10.45;5.10;;;17.30;97.00;;;;;;6251045;23;20239;-79
2021/08/14 02:53:31;;;;;;;13.00;4.50;;;17.20;96.90;;;;;;6251560;23;20251;-79
2021/08/14 02:55:58;;;;;;;8.55;4.45;;;17.10;96.90;;;;;;6252754;23;20027;-79
2021/08/14 02:58:27;;;;;;;10.95;4.65;;;17.10;96.80;;;;;;6250264;23;20307;-78
2021/08/14 03:00:54;;;;;;;8.40;4.28;;;17.00;96.80;;;;;;6245001;23;20210;-79
2021/08/14 03:03:21;;;;;;;8.00;4.40;;;16.90;96.70;;;;;;6251961;23;20290;-78
2021/08/14 03:05:49;;;;;;;8.57;4.22;;;17.00;96.80;;;;;;6253977;22;20024;-79
2021/08/14 03:08:16;;;;;;;10.52;4.55;;;17.00;96.80;;;;;;6251337;22;20007;-78
2021/08/14 03:10:44;;;;;;;7.72;4.15;;;17.00;96.80;;;;;;6250962;23;20043;-79
2021/08/14 03:13:14;;;;;;;9.55;4.75;;;17.00;96.80;;;;;;6251468;22;20061;-78
2021/08/14 03:15:42;;;;;;;7.43;4.03;;;17.00;96.80;;;;;;6252276;23;20226;-79
2021/08/14 03:18:09;;;;;;;7.95;4.63;;;16.90;96.70;;;;;;6245788;23;20062;-79
2021/08/14 03:20:36;;;;;;;8.75;4.63;;;16.90;96.70;;;;;;6249999;23;20027;-79
2021/08/14 03:23:04;;;;;;;9.60;4.68;;;17.00;96.80;;;;;;6252385;23;20058;-79
2021/08/14 03:25:31;;;;;;;8.52;4.30;;;16.90;96.70;;;;;;6249539;23;20239;-78
2021/08/14 03:28:00;;;;;;;10.85;5.07;;;17.00;96.70;;;;;;6249106;23;20016;-79
2021/08/14 03:30:27;;;;;;;12.25;4.85;;;16.90;96.70;;;;;;6250340;23;20031;-79
2021/08/14 03:32:55;;;;;;;11.45;5.22;;;16.90;96.70;;;;;;6251982;22;20031;-77
2021/08/14 03:35:22;;;;;;;11.75;4.90;;;16.90;96.60;;;;;;6255796;22;20341;-79
2021/08/14 03:37:49;;;;;;;8.23;4.65;;;17.00;96.70;;;;;;6256311;23;20012;-80
2021/08/14 03:40:16;;;;;;;8.82;4.80;;;17.10;96.80;;;;;;6254665;22;20043;-79
2021/08/14 03:42:43;;;;;;;9.43;4.25;;;17.20;96.80;;;;;;6257549;22;20016;-79
2021/08/14 03:45:12;;;;;;;10.43;5.45;;;17.20;96.90;;;;;;6256155;23;20027;-79
2021/08/14 03:47:40;;;;;;;8.75;4.35;;;17.20;96.90;;;;;;6257610;23;20510;-79
2021/08/14 03:50:08;;;;;;;8.68;4.15;;;17.20;96.90;;;;;;6255725;23;20062;-79
2021/08/14 03:52:35;;;;;;;12.02;5.05;;;17.10;96.80;;;;;;6281649;22;20359;-79
2021/08/14 03:55:03;;;;;;;8.75;4.32;;;17.00;96.60;;;;;;6256910;22;20297;-79
2021/08/14 03:57:31;;;;;;;8.32;4.68;;;17.10;96.60;;;;;;6277617;22;20091;-79
2021/08/14 03:59:58;;;;;;;7.38;4.13;;;16.80;96.50;;;;;;6259078;22;20299;-79
2021/08/14 04:02:26;;;;;;;8.10;3.95;;;16.70;96.30;;;;;;6249776;23;20048;-79
2021/08/14 04:04:54;;;;;;;9.05;4.30;;;16.60;96.30;;;;;;6258757;22;20024;-79
2021/08/14 04:07:21;;;;;;;10.23;4.72;;;16.70;96.40;;;;;;6257619;23;20095;-79
2021/08/14 04:09:48;;;;;;;8.80;4.32;;;16.60;96.40;;;;;;6259238;23;20062;-78
2021/08/14 04:12:15;;;;;;;8.20;4.57;;;16.70;96.50;;;;;;6255205;23;20047;-79
2021/08/14 04:14:43;;;;;;;10.85;3.60;;;16.80;96.70;;;;;;6258359;23;20031;-79
2021/08/14 04:17:10;;;;;;;10.43;4.22;;;16.80;96.60;;;;;;6257878;23;20020;-79
2021/08/14 04:19:38;;;;;;;11.32;5.05;;;16.80;96.70;;;;;;6257031;23;20061;-79
2021/08/14 04:22:05;;;;;;;12.23;5.65;;;16.90;96.70;;;;;;6258071;22;20322;-79
2021/08/14 04:24:33;;;;;;;11.45;5.65;;;16.80;96.60;;;;;;6255101;23;20051;-79
2021/08/14 04:27:00;;;;;;;11.60;5.00;;;16.80;96.60;;;;;;6255103;23;20091;-79
2021/08/14 04:29:28;;;;;;;10.70;4.72;;;16.80;96.60;;;;;;6253728;23;20016;-79
2021/08/14 04:31:55;;;;;;;9.23;4.35;;;16.80;96.60;;;;;;6256494;22;20016;-78
2021/08/14 04:34:23;;;;;;;12.35;5.35;;;16.80;96.60;;;;;;6255140;23;20019;-79
2021/08/14 04:36:52;;;;;;;14.38;5.90;;;16.70;96.50;;;;;;6254950;22;20016;-78
2021/08/14 04:39:19;;;;;;;10.68;4.82;;;16.80;96.60;;;;;;6257712;22;20012;-78
2021/08/14 04:41:46;;;;;;;9.77;4.65;;;16.80;96.60;;;;;;6256699;23;20039;-79
2021/08/14 04:44:13;;;;;;;10.63;5.05;;;16.90;96.60;;;;;;6255378;22;20218;-79
2021/08/14 04:46:40;;;;;;;10.65;5.10;;;16.70;96.50;;;;;;6257524;22;20204;-78
2021/08/14 04:49:08;;;;;;;11.10;5.28;;;16.80;96.60;;;;;;6256771;23;20039;-79
2021/08/14 04:51:35;;;;;;;11.90;5.57;;;16.80;96.60;;;;;;6258220;22;20032;-79
2021/08/14 04:54:04;;;;;;;11.30;4.90;;;16.80;96.50;;;;;;6257913;22;20016;-78
2021/08/14 04:56:31;;;;;;;10.87;5.40;;;16.80;96.50;;;;;;6258457;23;20043;-79
2021/08/14 04:58:59;;;;;;;10.07;4.65;;;16.90;96.50;;;;;;6257464;22;20016;-79
2021/08/14 05:01:27;;;;;;;15.82;5.32;;;16.90;96.50;;;;;;6254636;22;20047;-79
2021/08/14 05:03:54;;;;;;;12.35;5.40;;;16.90;96.50;;;;;;6256123;23;20022;-78
2021/08/14 05:06:21;;;;;;;12.30;4.55;;;16.90;96.60;;;;;;6281119;22;20043;-79
2021/08/14 05:08:48;;;;;;;11.27;5.78;;;16.80;96.50;;;;;;6257181;22;20024;-77
2021/08/14 05:11:17;;;;;;;13.05;4.90;;;16.80;96.50;;;;;;6256781;22;20274;-78
2021/08/14 05:13:44;;;;;;;13.52;5.40;;;16.80;96.50;;;;;;6258129;22;20016;-78
2021/08/14 05:16:11;;;;;;;10.10;4.63;;;16.80;96.40;;;;;;6256098;22;20303;-79
2021/08/14 05:18:38;;;;;;;15.57;5.45;;;16.90;96.50;;;;;;6254917;22;20232;-79
2021/08/14 05:21:05;;;;;;;11.82;4.70;;;17.00;96.40;;;;;;6252895;23;20016;-78
2021/08/14 05:23:33;;;;;;;12.27;5.15;;;17.00;96.40;;;;;;6255997;22;20023;-78
2021/08/14 05:26:00;;;;;;;10.40;4.68;;;17.00;96.40;;;;;;6252588;23;20079;-78
2021/08/14 05:28:32;;;;;;;10.05;5.07;;;17.00;96.20;;;;;;6253523;23;20074;-79
2021/08/14 05:30:59;;;;;;;9.02;4.32;;;17.00;96.30;;;;;;6254306;23;20020;-79
2021/08/14 05:33:26;;;;;;;8.98;4.75;;;16.90;96.10;;;;;;6256054;23;20020;-78
2021/08/14 05:35:53;;;;;;;12.32;5.38;;;16.90;96.20;;;;;;6258382;22;20036;-79
2021/08/14 05:38:21;;;;;;;8.50;4.35;;;17.00;96.10;;;;;;6256244;23;20036;-79
2021/08/14 05:40:48;;;;;;;10.60;4.30;;;17.00;96.10;;;;;;6255902;23;20046;-79
2021/08/14 05:43:15;;;;;;;9.05;4.57;;;17.10;96.20;;;;;;6257770;22;20035;-79
2021/08/14 05:45:44;;;;;;;12.25;4.82;;;17.20;96.00;;;;;;6257276;23;20028;-78
2021/08/14 05:48:11;;;;;;;9.00;4.20;;;17.20;95.90;;;;;;6258287;22;20027;-78
2021/08/14 05:50:38;;;;;;;8.57;4.00;;;17.20;95.90;;;;;;6257958;22;20205;-78
2021/08/14 05:53:06;;;;;;;11.82;4.82;;;17.30;95.80;;;;;;6256364;23;20043;-78
2021/08/14 05:55:34;;;;;;;10.25;4.28;;;17.30;95.80;;;;;;6256812;22;20016;-78
2021/08/14 05:58:04;;;;;;;7.22;3.50;;;17.20;95.70;;;;;;6276396;22;20027;-77
2021/08/14 06:00:31;;;;;;;7.93;4.10;;;17.30;95.80;;;;;;6275557;22;20020;-78
2021/08/14 06:03:00;;;;;;;9.48;4.40;;;17.30;95.80;;;;;;6255145;22;20016;-79
2021/08/14 06:05:27;;;;;;;11.10;5.15;;;17.40;95.80;;;;;;6254134;23;20012;-79
2021/08/14 06:07:54;;;;;;;8.77;4.47;;;17.40;95.70;;;;;;6251646;23;20166;-78
2021/08/14 06:10:21;;;;;;;9.32;4.57;;;17.50;95.80;;;;;;6254378;23;20032;-79
2021/08/14 06:12:48;;;;;;;9.63;4.95;;;17.60;95.80;;;;;;6277721;22;20036;-78
2021/08/14 06:15:15;;;;;;;10.93;4.10;;;17.70;95.60;;;;;;6250345;23;20036;-78
2021/08/14 06:17:43;;;;;;;6.40;3.17;;;17.70;95.40;;;;;;6252483;22;20303;-78
2021/08/14 06:20:13;;;;;;;8.00;4.53;;;17.80;95.50;;;;;;6251580;23;20015;-79
2021/08/14 06:22:41;;;;;;;7.53;3.65;;;17.90;95.40;;;;;;6256427;23;20028;-79
2021/08/14 06:25:10;;;;;;;6.78;3.60;;;18.00;95.40;;;;;;6257680;23;20062;-78
2021/08/14 06:27:37;;;;;;;8.77;3.95;;;18.10;95.40;;;;;;6254791;23;20043;-78
2021/08/14 06:30:07;;;;;;;9.05;4.15;;;18.10;95.20;;;;;;6255261;23;20054;-78
2021/08/14 06:32:35;;;;;;;8.65;4.00;;;18.10;95.30;;;;;;6259286;23;20016;-79
2021/08/14 06:35:02;;;;;;;6.85;3.55;;;18.10;95.20;;;;;;6258081;22;20016;-78
2021/08/14 06:37:30;;;;;;;5.78;3.22;;;18.10;95.10;;;;;;6254258;23;20028;-79
2021/08/14 06:40:00;;;;;;;6.70;3.60;;;18.20;95.00;;;;;;6256127;23;20023;-78
2021/08/14 06:42:29;;;;;;;9.20;4.30;;;18.30;95.10;;;;;;6256562;22;20043;-79
2021/08/14 06:44:56;;;;;;;8.57;4.22;;;18.40;94.90;;;;;;6254467;23;20083;-77
2021/08/14 06:47:23;;;;;;;6.85;3.67;;;18.40;95.00;;;;;;6254509;23;20047;-79
2021/08/14 06:49:50;;;;;;;6.18;3.28;;;18.40;94.60;;;;;;6253868;22;20024;-79
2021/08/14 06:52:18;;;;;;;7.05;3.55;;;18.40;94.60;;;;;;6256278;23;20016;-78
2021/08/14 06:54:46;;;;;;;8.38;4.22;;;18.50;94.70;;;;;;6255772;22;20016;-78
2021/08/14 06:57:14;;;;;;;6.78;4.05;;;18.50;94.70;;;;;;6255324;22;20016;-79
2021/08/14 06:59:41;;;;;;;8.05;4.50;;;18.60;94.40;;;;;;6254562;22;20234;-78
2021/08/14 07:02:08;;;;;;;8.80;4.90;;;18.60;94.30;;;;;;6274468;22;20024;-78
2021/08/14 07:04:39;;;;;;;7.13;4.57;;;18.60;94.40;;;;;;6252764;23;20035;-78
2021/08/14 07:07:06;;;;;;;8.63;4.90;;;18.70;94.40;;;;;;6254284;23;20034;-79
2021/08/14 07:09:36;;;;;;;8.18;4.75;;;18.60;94.30;;;;;;6275045;22;20020;-79
2021/08/14 07:12:05;;;;;;;;;;;18.70;94.50;;;;;;6256139;23;20047;-78
2021/08/14 07:14:33;;;;;;;6.10;3.50;;;18.70;94.20;;;;;;6256409;23;19923;-79
2021/08/14 07:17:00;;;;;;;7.45;3.67;;;18.90;94.60;;;;;;6254770;23;20242;-79
2021/08/14 07:19:31;;;;;;;9.00;3.88;;;19.00;94.60;;;;;;6258124;23;20023;-79
2021/08/14 07:21:58;;;;;;;7.53;4.60;;;19.30;94.10;;;;;;6253753;23;20323;-78
2021/08/14 07:24:26;;;;;;;7.55;4.22;;;19.30;93.70;;;;;;6256608;22;20024;-79
2021/08/14 07:26:53;;;;;;;7.45;3.28;;;19.60;93.70;;;;;;6260949;23;20388;-80
2021/08/14 07:29:22;;;;;;;9.18;4.78;;;20.00;93.60;;;;;;6260921;22;20024;-78
2021/08/14 07:31:50;;;;;;;6.80;4.03;;;20.00;91.90;;;;;;6261336;23;20100;-78
2021/08/14 07:34:17;;;;;;;8.45;4.75;;;19.90;92.50;;;;;;6285585;22;20136;-78
2021/08/14 07:36:44;;;;;;;11.85;4.47;;;19.60;92.40;;;;;;6259680;23;20014;-78
2021/08/14 07:39:11;;;;;;;8.98;4.18;;;19.50;92.70;;;;;;6259151;22;20047;-78
2021/08/14 07:41:38;;;;;;;13.25;4.68;;;19.50;92.90;;;;;;6260227;22;20019;-79
2021/08/14 07:44:06;;;;;;;8.80;4.65;;;19.50;92.70;;;;;;6256494;22;20028;-78
2021/08/14 07:46:35;;;;;;;8.73;3.97;;;19.60;92.30;;;;;;6260397;22;20127;-79
2021/08/14 07:49:02;;;;;;;8.23;4.22;;;19.80;91.90;;;;;;6258957;23;20016;-78
2021/08/14 07:51:29;;;;;;;8.02;3.95;;;19.80;91.20;;;;;;6257372;23;20010;-79
2021/08/14 07:53:56;;;;;;;8.15;4.05;;;19.70;91.60;;;;;;6258597;22;20024;-78
2021/08/14 07:56:24;;;;;;;8.40;3.90;;;19.60;91.30;;;;;;6254654;22;20051;-78
2021/08/14 07:58:51;;;;;;;11.02;4.20;;;19.60;91.20;;;;;;6254524;22;20373;-78
2021/08/14 08:01:18;;;;;;;5.78;3.80;;;19.70;91.30;;;;;;6248623;22;20012;-78
2021/08/14 08:03:47;;;;;;;6.50;3.72;;;19.90;90.40;;;;;;6263024;22;20051;-79
2021/08/14 08:06:14;;;;;;;7.70;4.13;;;19.90;89.90;;;;;;6261550;23;20027;-79
2021/08/14 08:08:41;;;;;;;5.88;3.33;;;19.90;90.00;;;;;;6288012;22;20027;-79
2021/08/14 08:11:09;;;;;;;5.75;3.35;;;20.00;89.50;;;;;;6261230;23;20024;-79
2021/08/14 08:13:36;;;;;;;7.28;3.75;;;20.10;89.50;;;;;;6265228;22;20024;-79
2021/08/14 08:16:03;;;;;;;6.90;3.58;;;20.10;89.20;;;;;;6259862;22;20024;-79
2021/08/14 08:18:31;;;;;;;6.28;3.38;;;20.30;89.40;;;;;;6261996;23;20035;-79
2021/08/14 08:20:59;;;;;;;7.07;4.00;;;20.30;89.10;;;;;;6260575;22;20036;-78
2021/08/14 08:23:26;;;;;;;7.03;3.65;;;20.40;88.20;;;;;;6258443;23;20028;-77
2021/08/14 08:25:54;;;;;;;7.40;3.53;;;20.40;88.30;;;;;;6259332;23;20039;-78
2021/08/14 08:28:21;;;;;;;5.68;3.50;;;20.60;88.40;;;;;;6259752;23;20326;-78
2021/08/14 08:30:49;;;;;;;6.40;3.42;;;20.90;88.80;;;;;;6260194;23;20016;-78
2021/08/14 08:33:16;;;;;;;8.02;3.55;;;21.10;88.00;;;;;;6256463;23;20048;-78
2021/08/14 08:35:44;;;;;;;8.93;3.50;;;21.10;86.60;;;;;;6258585;22;20023;-78
2021/08/14 08:38:12;;;;;;;7.28;3.65;;;21.20;84.80;;;;;;6256051;23;20047;-78
2021/08/14 08:40:41;;;;;;;6.45;3.45;;;21.30;84.80;;;;;;6254414;23;20082;-78
2021/08/14 08:43:10;;;;;;;6.97;3.00;;;21.50;83.50;;;;;;6253412;22;20026;-77
2021/08/14 08:45:37;;;;;;;5.90;2.88;;;21.70;82.20;;;;;;6254297;22;20199;-78
2021/08/14 08:48:07;;;;;;;6.38;3.22;;;21.90;82.70;;;;;;6253010;23;20032;-77
2021/08/14 08:50:35;;;;;;;;;;;22.20;82.40;;;;;;6254577;22;20020;-78
2021/08/14 08:53:04;;;;;;;5.72;3.17;;;22.20;81.90;;;;;;6256414;23;19911;-78
2021/08/14 08:55:34;;;;;;;6.25;3.22;;;22.30;81.10;;;;;;6284152;22;20027;-78
2021/08/14 08:58:02;;;;;;;9.40;3.53;;;22.40;80.60;;;;;;6260977;23;20270;-78
2021/08/14 09:00:29;;;;;;;5.57;3.00;;;22.50;80.70;;;;;;6253954;23;20363;-78
2021/08/14 09:03:09;;;;;;;5.65;3.15;;;22.60;80.30;;;;;;6260242;22;20019;-78
2021/08/14 09:05:45;;;;;;;;;;;22.60;79.50;;;;;;6286101;22;20028;-78
2021/08/14 09:08:13;;;;;;;6.32;3.17;;;22.70;79.30;;;;;;6247705;23;20199;-75
2021/08/14 09:10:42;;;;;;;6.97;2.67;;;22.80;77.90;;;;;;6251516;23;20012;-74
2021/08/14 09:13:14;;;;;;;6.80;2.83;;;23.00;78.10;;;;;;6248875;23;20028;-77
2021/08/14 09:15:42;;;;;;;5.65;2.70;;;23.10;76.60;;;;;;6251815;22;20410;-75
2021/08/14 09:18:11;;;;;;;5.45;2.97;;;23.30;76.00;;;;;;6249109;23;20386;-76
2021/08/14 09:20:50;;;;;;;6.13;3.30;;;23.60;75.90;;;;;;6249760;23;20121;-74
2021/08/14 09:23:24;;;;;;;6.05;2.95;;;23.80;73.80;;;;;;6256019;22;20306;-76
2021/08/14 09:25:55;;;;;;;7.70;3.22;;;23.80;72.30;;;;;;6255281;22;20028;-75
2021/08/14 09:28:31;;;;;;;6.40;3.47;;;24.00;71.80;;;;;;6250993;22;20301;-76
2021/08/14 09:31:00;;;;;;;5.78;2.85;;;24.10;70.80;;;;;;6250375;23;20027;-76
2021/08/14 09:33:29;;;;;;;5.18;2.80;;;24.10;70.80;;;;;;6249739;23;20009;-76
2021/08/14 09:35:58;;;;;;;6.35;2.97;;;24.10;71.00;;;;;;6252987;23;20020;-76
2021/08/14 09:38:38;;;;;;;6.88;3.38;;;24.20;68.40;;;;;;6250947;23;20022;-76
2021/08/14 09:41:10;;;;;;;6.28;3.40;;;24.20;70.00;;;;;;6248603;23;20028;-76
2021/08/14 09:43:38;;;;;;;5.32;2.95;;;24.40;69.80;;;;;;6249008;22;20050;-76
2021/08/14 09:46:05;;;;;;;6.72;3.90;;;24.60;70.10;;;;;;6248653;23;20353;-75
2021/08/14 09:48:32;;;;;;;6.20;3.30;;;24.80;69.00;;;;;;6250708;23;20063;-76
2021/08/14 09:51:00;;;;;;;6.88;3.55;;;24.90;69.30;;;;;;6252451;22;20051;-76
2021/08/14 09:53:31;;;;;;;6.13;3.83;;;25.20;68.90;;;;;;6252581;23;20070;-76
2021/08/14 09:56:09;;;;;;;6.80;3.50;;;25.60;67.20;;;;;;6249023;23;20016;-75
2021/08/14 09:58:37;;;;;;;6.68;3.72;;;25.80;64.40;;;;;;6249218;23;20063;-75
2021/08/14 10:01:06;;;;;;;9.07;3.72;;;26.00;65.20;;;;;;6243386;22;20323;-74
2021/08/14 10:03:34;;;;;;;8.82;4.15;;;26.40;63.90;;;;;;6246970;23;20058;-74
2021/08/14 10:06:04;;;;;;;7.38;3.20;;;26.60;63.30;;;;;;6251831;23;20070;-76
2021/08/14 10:08:31;;;;;;;6.47;3.65;;;26.80;62.50;;;;;;6247259;22;20232;-76
2021/08/14 10:10:59;;;;;;;7.38;3.03;;;27.20;60.10;;;;;;6249936;22;20020;-76
2021/08/14 10:13:29;;;;;;;7.30;2.92;;;27.50;57.90;;;;;;6250083;23;20264;-75
2021/08/14 10:15:57;;;;;;;5.82;3.10;;;28.10;56.10;;;;;;6246835;23;20028;-75
2021/08/14 10:18:26;;;;;;;6.40;3.25;;;28.70;52.60;;;;;;6249793;22;20091;-75
2021/08/14 10:20:53;;;;;;;6.78;3.35;;;28.90;51.60;;;;;;6247673;23;20023;-75
2021/08/14 10:23:24;;;;;;;6.32;3.40;;;29.60;50.80;;;;;;6254396;22;20020;-75
2021/08/14 10:25:59;;;;;;;6.30;2.97;;;30.50;50.10;;;;;;6249729;23;20079;-75
2021/08/14 11:13:51;;;;;;;7.25;3.67;;;34.80;37.90;;;;;;5134972;27;20596;-79
2021/08/14 11:16:58;;;;;;;6.07;3.38;;;35.00;36.50;;;;;;5127783;28;20091;-79
2021/08/14 11:19:46;;;;;;;5.00;2.70;;;34.80;35.90;;;;;;5125057;28;20067;-79
2021/08/14 11:22:30;;;;;;;7.88;3.70;;;35.00;35.60;;;;;;5124117;28;20111;-78
2021/08/14 11:25:00;;;;;;;5.85;3.15;;;35.50;34.30;;;;;;5123277;28;20047;-78
2021/08/14 11:27:32;;;;;;;6.07;3.30;;;35.00;34.20;;;;;;5128833;28;20048;-79
2021/08/14 11:30:03;;;;;;;6.38;3.47;;;33.90;36.50;;;;;;5122802;28;20055;-80
2021/08/14 11:32:31;;;;;;;7.90;3.10;;;35.30;35.50;;;;;;5124934;28;20047;-78
2021/08/14 11:35:00;;;;;;;6.65;2.90;;;36.10;32.70;;;;;;5111410;28;20357;-78
2021/08/14 11:37:28;;;;;;;6.35;3.40;;;37.20;32.00;;;;;;5118811;28;20048;-78
2021/08/14 11:39:58;;;;;;;4.97;2.90;;;37.60;28.70;;;;;;5129451;28;20404;-79
2021/08/14 11:42:27;;;;;;;7.00;3.17;;;36.80;30.30;;;;;;5119235;28;20220;-80
2021/08/14 11:45:00;;;;;;;5.07;2.95;;;36.90;31.10;;;;;;5103267;28;20399;-79
2021/08/14 11:47:41;;;;;;;5.30;3.22;;;37.80;31.00;;;;;;5103462;28;20322;-78
2021/08/14 11:50:10;;;;;;;4.85;3.08;;;38.60;28.60;;;;;;5113624;28;20075;-78
2021/08/14 11:52:38;;;;;;;6.78;3.35;;;38.10;27.80;;;;;;5104232;28;20070;-78
2021/08/14 11:55:08;;;;;;;7.05;3.50;;;36.80;29.20;;;;;;5109028;28;20082;-78
2021/08/14 11:57:36;;;;;;;7.53;3.65;;;37.40;29.10;;;;;;5099225;28;20327;-78
2021/08/14 12:00:24;;;;;;;6.00;3.15;;;37.60;29.30;;;;;;5100798;28;20124;-77
2021/08/14 12:03:12;;;;;;;5.00;2.97;;;38.10;28.80;;;;;;5099430;28;20052;-78
2021/08/14 12:05:41;;;;;;;6.53;2.90;;;38.30;27.80;;;;;;5098607;28;20314;-78
2021/08/14 12:08:10;;;;;;;6.85;3.40;;;38.00;27.90;;;;;;5097788;28;20052;-77
2021/08/14 12:10:38;;;;;;;6.13;3.22;;;39.40;26.70;;;;;;5122353;28;20127;-78
2021/08/14 12:13:07;;;;;;;5.80;3.28;;;39.00;26.70;;;;;;5107261;28;20084;-78
2021/08/14 12:15:36;;;;;;;6.30;3.38;;;39.50;25.30;;;;;;5102265;28;20044;-78
2021/08/14 12:18:05;;;;;;;5.63;2.95;;;39.50;25.70;;;;;;5108782;28;20050;-79
2021/08/14 12:20:35;;;;;;;5.88;2.92;;;40.50;25.20;;;;;;5097303;28;20058;-77
2021/08/14 12:23:23;;;;;;;6.35;3.17;;;40.50;24.90;;;;;;5094002;28;20052;-79
2021/08/14 12:25:57;;;;;;;6.85;3.28;;;38.50;26.60;;;;;;5093799;28;20055;-79
2021/08/14 12:28:27;;;;;;;4.88;2.97;;;38.10;28.20;;;;;;5093912;28;20048;-78
2021/08/14 12:30:55;;;;;;;5.97;3.10;;;39.20;26.60;;;;;;5088018;28;20116;-79
2021/08/14 12:33:25;;;;;;;7.65;3.10;;;39.90;26.10;;;;;;5084639;28;20232;-79
2021/08/14 12:36:01;;;;;;;5.32;2.90;;;40.10;24.50;;;;;;5087712;28;20290;-78
2021/08/14 12:38:33;;;;;;;6.70;3.30;;;40.50;25.00;;;;;;5086829;28;20056;-79
2021/08/14 12:41:14;;;;;;;4.95;2.88;;;39.50;25.70;;;;;;5088666;28;20051;-78
2021/08/14 12:43:45;;;;;;;5.45;2.97;;;40.30;25.60;;;;;;5089286;28;20052;-78
2021/08/14 12:46:19;;;;;;;7.07;2.85;;;40.00;24.00;;;;;;5082797;28;20086;-78
2021/08/14 12:49:17;;;;;;;7.07;2.70;;;38.50;26.70;;;;;;5101372;28;20047;-78
2021/08/14 12:51:58;;;;;;;6.22;3.15;;;38.90;25.20;;;;;;5047845;28;20063;-78
2021/08/14 12:54:26;;;;;;;4.47;2.67;;;39.40;25.00;;;;;;5081820;28;20076;-78
2021/08/14 12:56:56;;;;;;;6.82;2.85;;;39.70;25.40;;;;;;5089661;28;20276;-78
2021/08/14 12:59:23;;;;;;;5.00;2.65;;;41.30;23.30;;;;;;5090373;28;20058;-79
2021/08/14 13:01:56;;;;;;;4.28;2.70;;;40.40;23.00;;;;;;5087352;28;20029;-78
2021/08/14 13:04:25;;;;;;;6.50;2.53;;;40.60;21.90;;;;;;5094185;28;20052;-80
2021/08/14 13:06:57;;;;;;;7.55;2.35;;;39.70;23.10;;;;;;5092544;28;20064;-80
2021/08/14 13:09:24;;;;;;;4.75;2.35;;;39.80;23.50;;;;;;5095671;28;20078;-77
2021/08/14 13:11:55;;;;;;;6.27;3.50;;;40.70;22.50;;;;;;5093482;28;20072;-81
2021/08/14 13:14:23;;;;;;;4.25;2.55;;;40.60;23.10;;;;;;5099263;28;20056;-79
2021/08/14 13:16:51;;;;;;;;;;;39.90;22.80;;;;;;5082362;28;20115;-77
2021/08/14 13:19:18;;;;;;;4.40;2.47;;;38.80;24.30;;;;;;5084670;28;19951;-79
2021/08/14 13:21:45;;;;;;;8.83;2.60;;;39.90;22.40;;;;;;5085825;28;20067;-80
2021/08/14 13:24:21;;;;;;;4.53;2.00;;;40.00;21.80;;;;;;5083598;28;20360;-79
2021/08/14 13:26:48;;;;;;;3.15;1.95;;;39.70;19.70;;;;;;5068377;28;20466;-78
2021/08/14 13:29:16;;;;;;;4.93;2.20;;;40.50;18.70;;;;;;5085529;28;20056;-79
2021/08/14 13:31:44;;;;;;;6.57;2.40;;;39.20;21.80;;;;;;5084542;28;20247;-79
2021/08/14 13:34:12;;;;;;;;;;;40.50;20.20;;;;;;5084623;28;20113;-78
2021/08/14 13:36:40;;;;;;;6.47;2.40;;;42.20;18.00;;;;;;5091694;28;19951;-78
2021/08/14 13:39:08;;;;;;;4.60;2.15;;;41.10;19.30;;;;;;5085365;28;20056;-77